createdAt,value
2023-02-27T00:01:27.004Z,-3.20
2023-02-27T00:03:57.339Z,-3.40
2023-02-27T00:06:27.615Z,-3.50
2023-02-27T00:08:57.806Z,-3.50
2023-02-27T00:11:30.800Z,-3.40
2023-02-27T00:14:01.316Z,-3.40
2023-02-27T00:16:31.228Z,-3.50
2023-02-27T00:19:04.541Z,-3.50
2023-02-27T00:21:36.853Z,-3.30
2023-02-27T00:24:08.107Z,-3.20
2023-02-27T00:26:40.856Z,-3.00
2023-02-27T00:29:10.927Z,-2.90
2023-02-27T00:31:41.056Z,-3.00
2023-02-27T00:34:11.170Z,-3.10
2023-02-27T00:36:41.118Z,-3.10
2023-02-27T00:39:11.125Z,-3.20
2023-02-27T00:41:43.692Z,-3.20
2023-02-27T00:44:13.672Z,-3.30
2023-02-27T00:46:43.681Z,-3.40
2023-02-27T00:49:13.628Z,-3.40
2023-02-27T00:51:43.586Z,-3.40
2023-02-27T00:54:13.523Z,-3.50
2023-02-27T00:56:46.177Z,-3.50
2023-02-27T00:59:16.200Z,-3.30
2023-02-27T01:01:47.142Z,-3.30
2023-02-27T01:04:17.378Z,-3.30
2023-02-27T01:06:47.301Z,-3.20
2023-02-27T01:09:17.323Z,-3.20
2023-02-27T01:11:49.944Z,-3.40
2023-02-27T01:14:19.944Z,-3.50
2023-02-27T01:16:50.072Z,-3.60
2023-02-27T01:19:20.025Z,-3.60
2023-02-27T01:21:50.556Z,-3.60
2023-02-27T01:24:21.947Z,-3.70
2023-02-27T01:26:54.728Z,-3.70
2023-02-27T01:29:24.828Z,-3.70
2023-02-27T01:31:55.203Z,-3.80
2023-02-27T01:34:25.205Z,-3.80
2023-02-27T01:36:55.142Z,-3.80
2023-02-27T01:39:26.083Z,-3.60
2023-02-27T01:41:58.749Z,-3.60
2023-02-27T01:44:34.113Z,-3.70
2023-02-27T01:47:05.558Z,-3.60
2023-02-27T01:49:37.501Z,-3.60
2023-02-27T01:52:15.331Z,-3.50
2023-02-27T01:54:46.133Z,-3.50
2023-02-27T01:57:19.070Z,-3.40
2023-02-27T01:59:49.070Z,-3.50
2023-02-27T02:02:29.640Z,-3.60
2023-02-27T02:05:00.241Z,-3.60
2023-02-27T02:07:31.780Z,-3.60
2023-02-27T02:10:04.372Z,-3.60
2023-02-27T02:12:40.861Z,-3.50
2023-02-27T02:15:13.534Z,-3.40
2023-02-27T02:17:56.616Z,-3.50
2023-02-27T02:21:25.422Z,-3.50
2023-02-27T02:24:55.018Z,-3.40
2023-02-27T02:27:47.311Z,-3.40
2023-02-27T02:30:59.619Z,-3.50
2023-02-27T02:34:13.369Z,-3.50
2023-02-27T02:37:40.719Z,-3.50
2023-02-27T02:40:37.912Z,-3.60
2023-02-27T02:43:17.951Z,-3.70
2023-02-27T02:46:01.888Z,-3.60
2023-02-27T02:48:41.903Z,-3.60
2023-02-27T02:51:26.602Z,-3.70
2023-02-27T02:54:11.975Z,-3.70
2023-02-27T02:56:55.015Z,-3.70
2023-02-27T02:59:35.039Z,-3.70
2023-02-27T03:02:11.100Z,-3.70
2023-02-27T03:04:48.392Z,-3.70
2023-02-27T03:07:26.669Z,-3.80
2023-02-27T03:10:05.428Z,-3.70
2023-02-27T03:12:43.538Z,-3.60
2023-02-27T03:15:21.872Z,-3.60
2023-02-27T03:17:59.473Z,-3.70
2023-02-27T03:20:36.608Z,-3.70
2023-02-27T03:23:13.973Z,-3.60
2023-02-27T03:25:47.717Z,-3.80
2023-02-27T03:28:30.450Z,-3.70
2023-02-27T03:31:10.816Z,-3.80
2023-02-27T03:33:50.024Z,-3.80
2023-02-27T03:36:31.796Z,-3.90
2023-02-27T03:39:11.345Z,-4.00
2023-02-27T03:41:53.245Z,-4.10
2023-02-27T03:44:55.257Z,-4.10
2023-02-27T03:47:25.663Z,-4.10
2023-02-27T03:49:55.967Z,-4.00
2023-02-27T03:52:28.764Z,-3.90
2023-02-27T03:55:07.979Z,-4.00
2023-02-27T03:57:39.711Z,-4.00
2023-02-27T04:00:18.920Z,-3.90
2023-02-27T04:02:53.278Z,-4.00
2023-02-27T04:05:27.557Z,-4.10
2023-02-27T04:08:35.199Z,-4.10
2023-02-27T04:11:44.015Z,-4.00
2023-02-27T04:14:43.100Z,-3.90
2023-02-27T04:17:26.635Z,-4.00
2023-02-27T04:20:23.806Z,-4.10
2023-02-27T04:23:00.742Z,-4.10
2023-02-27T04:25:54.120Z,-4.10
2023-02-27T04:28:35.727Z,-4.10
2023-02-27T04:31:18.385Z,-4.00
2023-02-27T04:34:00.106Z,-3.90
2023-02-27T04:36:40.368Z,-4.00
2023-02-27T04:39:18.060Z,-3.90
2023-02-27T04:41:55.076Z,-3.90
2023-02-27T04:44:29.131Z,-3.90
2023-02-27T04:47:03.817Z,-3.90
2023-02-27T04:49:43.306Z,-3.90
2023-02-27T04:54:55.782Z,-3.90
2023-02-27T04:57:33.082Z,-3.90
2023-02-27T05:00:09.476Z,-4.10
2023-02-27T05:02:45.002Z,-4.20
2023-02-27T05:05:23.806Z,-4.00
2023-02-27T05:08:02.080Z,-4.00
2023-02-27T05:10:39.366Z,-4.20
2023-02-27T05:13:17.722Z,-4.30
2023-02-27T05:15:55.619Z,-4.30
2023-02-27T05:18:27.263Z,-4.40
2023-02-27T05:21:18.217Z,-4.50
2023-02-27T05:24:02.514Z,-4.40
2023-02-27T05:27:00.146Z,-4.30
2023-02-27T05:29:43.945Z,-4.20
2023-02-27T05:32:28.763Z,-4.00
2023-02-27T05:35:10.975Z,-4.10
2023-02-27T05:37:49.137Z,-4.00
2023-02-27T05:40:25.956Z,-4.10
2023-02-27T05:43:03.536Z,-4.00
2023-02-27T05:45:37.707Z,-4.20
2023-02-27T05:48:15.819Z,-4.10
2023-02-27T05:50:48.955Z,-4.20
2023-02-27T05:53:25.096Z,-4.20
2023-02-27T05:55:59.179Z,-4.30
2023-02-27T05:58:35.359Z,-4.10
2023-02-27T06:01:08.934Z,-3.80
2023-02-27T06:03:42.369Z,-3.80
2023-02-27T06:06:17.957Z,-3.80
2023-02-27T06:08:50.714Z,-3.80
2023-02-27T06:11:20.676Z,-3.80
2023-02-27T06:13:50.684Z,-3.80
2023-02-27T06:16:20.741Z,-3.80
2023-02-27T06:18:50.688Z,-3.90
2023-02-27T06:21:20.624Z,-3.80
2023-02-27T06:23:53.197Z,-3.80
2023-02-27T06:26:23.182Z,-3.80
2023-02-27T06:28:53.232Z,-3.90
2023-02-27T06:31:23.190Z,-3.80
2023-02-27T06:33:53.196Z,-3.80
2023-02-27T06:36:23.160Z,-3.80
2023-02-27T06:38:55.751Z,-3.70
2023-02-27T06:41:25.756Z,-3.60
2023-02-27T06:43:55.840Z,-3.60
2023-02-27T06:46:26.093Z,-3.50
2023-02-27T06:48:56.293Z,-3.40
2023-02-27T06:51:26.258Z,-3.30
2023-02-27T06:53:58.984Z,-2.90
2023-02-27T06:56:29.247Z,-1.90
2023-02-27T06:58:59.600Z,-1.10
2023-02-27T07:01:29.790Z,0.10
2023-02-27T07:04:01.132Z,0.60
2023-02-27T07:07:32.680Z,1.00
2023-02-27T07:09:23.967Z,1.00
2023-02-27T07:11:53.959Z,1.10
2023-02-27T07:14:25.754Z,1.80
2023-02-27T07:16:56.611Z,2.50
2023-02-27T07:19:28.272Z,3.20
2023-02-27T07:21:58.258Z,2.60
2023-02-27T07:24:30.867Z,1.90
2023-02-27T07:27:00.924Z,1.00
2023-02-27T07:29:30.901Z,0.80
2023-02-27T07:32:01.611Z,0.30
2023-02-27T07:34:31.657Z,-0.10
2023-02-27T07:37:01.640Z,0.00
2023-02-27T07:39:34.354Z,0.10
2023-02-27T07:42:04.464Z,-0.10
2023-02-27T07:44:36.537Z,-0.40
2023-02-27T07:47:07.436Z,-0.30
2023-02-27T07:49:37.402Z,-0.30
2023-02-27T07:52:08.389Z,0.40
2023-02-27T07:54:41.320Z,2.10
2023-02-27T07:57:11.469Z,2.60
2023-02-27T07:59:42.219Z,2.40
2023-02-27T08:02:14.472Z,1.50
2023-02-27T08:04:44.542Z,0.70
2023-02-27T08:07:14.582Z,0.40
2023-02-27T08:09:47.153Z,1.50
2023-02-27T08:12:17.329Z,3.40
2023-02-27T08:14:47.265Z,5.30
2023-02-27T08:17:17.549Z,6.60
2023-02-27T08:19:47.497Z,7.70
2023-02-27T08:22:17.595Z,6.80
2023-02-27T08:24:50.511Z,7.30
2023-02-27T08:27:20.623Z,8.20
2023-02-27T08:29:51.332Z,8.90
2023-02-27T08:32:21.686Z,10.60
2023-02-27T08:34:51.784Z,9.20
2023-02-27T19:34:43.306Z,-0.70
2023-02-27T19:37:15.699Z,-0.70
2023-02-27T19:39:46.518Z,-0.90
2023-02-27T19:42:16.557Z,-0.90
2023-02-27T19:44:46.616Z,-0.90
2023-02-27T19:47:16.621Z,-1.00
2023-02-27T19:49:49.618Z,-1.00
2023-02-27T19:52:19.623Z,-1.00
2023-02-27T19:54:49.786Z,-0.90
2023-02-27T19:57:20.571Z,-1.00
2023-02-27T19:59:50.675Z,-1.00
2023-02-27T20:02:20.605Z,-1.00
2023-02-27T20:04:53.724Z,-1.00
2023-02-27T20:07:29.086Z,-1.00
2023-02-27T20:09:59.265Z,-1.00
2023-02-27T20:12:29.349Z,-1.10
2023-02-27T20:14:59.314Z,-1.20
2023-02-27T20:17:29.583Z,-1.30
2023-02-27T20:20:02.065Z,-1.20
2023-02-27T20:22:32.748Z,-1.30
2023-02-27T20:25:03.097Z,-1.20
2023-02-27T20:27:33.058Z,-1.20
2023-02-27T20:30:03.110Z,-1.10
2023-02-27T20:32:33.183Z,-1.10
2023-02-27T20:35:06.615Z,-1.10
2023-02-27T20:37:36.689Z,-1.00
2023-02-27T20:40:08.413Z,-0.90
2023-02-27T20:42:38.894Z,-0.90
2023-02-27T20:45:10.898Z,-0.70
2023-02-27T20:47:40.898Z,-0.70
2023-02-27T20:50:15.179Z,-0.60
2023-02-27T20:52:45.185Z,-0.60
2023-02-27T20:55:15.206Z,-0.60
2023-02-27T20:57:45.158Z,-0.60
2023-02-27T21:00:16.945Z,-0.60
2023-02-27T21:02:46.976Z,-0.60
2023-02-27T21:05:19.731Z,-0.60
2023-02-27T21:07:49.807Z,-0.70
2023-02-27T21:10:20.697Z,-0.80
2023-02-27T21:12:50.671Z,-0.80
2023-02-27T21:15:20.902Z,-0.80
2023-02-27T21:17:50.922Z,-0.70
2023-02-27T21:20:23.627Z,-0.70
2023-02-27T21:22:55.870Z,-0.70
2023-02-27T21:25:27.455Z,-0.60
2023-02-27T21:28:02.099Z,-0.50
2023-02-27T21:30:32.630Z,-0.50
2023-02-27T21:33:04.475Z,-0.50
2023-02-27T21:35:37.209Z,-0.40
2023-02-27T21:38:07.450Z,-0.40
2023-02-27T21:40:37.848Z,-0.40
2023-02-27T21:43:07.786Z,-0.40
2023-02-27T21:45:41.559Z,-0.50
2023-02-27T21:48:11.887Z,-0.60
2023-02-27T21:50:44.415Z,-0.70
2023-02-27T21:53:14.373Z,-0.90
2023-02-27T21:55:44.330Z,-1.00
2023-02-27T21:58:14.347Z,-1.20
2023-02-27T22:00:44.393Z,-1.30
2023-02-27T22:03:14.331Z,-1.40
2023-02-27T22:05:47.442Z,-1.50
2023-02-27T22:08:17.475Z,-1.40
2023-02-27T22:10:48.540Z,-1.50
2023-02-27T22:13:19.023Z,-1.50
2023-02-27T22:15:48.994Z,-1.60
2023-02-27T22:18:19.254Z,-1.70
2023-02-27T22:20:51.825Z,-1.70
2023-02-27T22:23:21.766Z,-1.80
2023-02-27T22:26:02.479Z,-1.80
2023-02-27T22:28:34.501Z,-1.90
2023-02-27T22:31:16.908Z,-1.90
2023-02-27T22:33:49.681Z,-2.00
2023-02-27T22:36:25.329Z,-2.10
2023-02-27T22:38:56.259Z,-2.10
2023-02-27T22:41:31.091Z,-2.10
2023-02-27T22:44:03.334Z,-2.20
2023-02-27T22:46:35.628Z,-2.10
2023-02-27T22:49:10.933Z,-2.10
2023-02-27T22:51:44.373Z,-2.00
2023-02-27T22:54:16.777Z,-2.00
2023-02-27T22:56:47.284Z,-2.10
2023-02-27T22:59:17.416Z,-2.30
2023-02-27T23:01:48.703Z,-2.30
2023-02-27T23:04:19.767Z,-2.20
2023-02-27T23:06:53.473Z,-2.40
2023-02-27T23:09:27.318Z,-2.30
2023-02-27T23:11:58.892Z,-2.20
2023-02-27T23:14:29.105Z,-2.20
2023-02-27T23:16:59.222Z,-2.00
2023-02-27T23:19:29.209Z,-2.20
2023-02-27T23:22:01.887Z,-2.30
2023-02-27T23:24:31.830Z,-2.40
2023-02-27T23:27:03.041Z,-2.40
2023-02-27T23:29:33.916Z,-2.50
2023-02-27T23:32:03.991Z,-2.50
2023-02-27T23:34:48.674Z,-2.40
2023-02-27T23:37:22.143Z,-2.40
2023-02-27T23:39:52.369Z,-2.40
2023-02-27T23:42:22.331Z,-2.40
2023-02-27T23:45:04.917Z,-2.40
2023-02-27T23:47:51.807Z,-2.40
2023-02-27T23:50:23.821Z,-2.20
2023-02-27T23:52:58.928Z,-2.40
2023-02-27T23:55:31.723Z,-2.60
2023-02-27T23:58:05.014Z,-2.70
